createdAt,value
2024-03-16T00:02:22.309Z,12.10
2024-03-16T00:04:49.276Z,12.10
2024-03-16T00:07:16.300Z,12.10
2024-03-16T00:09:43.340Z,12.10
2024-03-16T00:12:10.301Z,12.00
2024-03-16T00:14:37.277Z,12.00
2024-03-16T00:17:04.691Z,12.00
2024-03-16T00:19:31.743Z,11.90
2024-03-16T00:21:58.931Z,11.90
2024-03-16T00:24:27.381Z,11.80
2024-03-16T00:26:55.526Z,11.80
2024-03-16T00:29:23.188Z,11.70
2024-03-16T00:31:50.513Z,11.70
2024-03-16T00:34:17.552Z,11.70
2024-03-16T00:36:44.528Z,11.60
2024-03-16T00:39:19.538Z,11.60
2024-03-16T00:41:46.677Z,11.50
2024-03-16T00:44:13.665Z,11.50
2024-03-16T00:46:40.700Z,11.50
2024-03-16T00:49:07.792Z,11.50
2024-03-16T00:51:34.799Z,11.50
2024-03-16T00:54:01.772Z,11.50
2024-03-16T00:56:28.853Z,11.50
2024-03-16T00:58:55.959Z,11.50
2024-03-16T01:01:23.289Z,11.50
2024-03-16T01:03:50.355Z,11.40
2024-03-16T01:06:17.965Z,11.40
2024-03-16T01:08:44.925Z,11.50
2024-03-16T01:11:12.221Z,11.50
2024-03-16T01:13:39.998Z,11.50
2024-03-16T01:16:07.170Z,11.50
2024-03-16T01:18:34.576Z,11.50
2024-03-16T01:21:02.735Z,11.50
2024-03-16T01:23:31.384Z,11.50
2024-03-16T01:25:58.434Z,11.50
2024-03-16T01:28:25.584Z,11.50
2024-03-16T01:30:53.221Z,11.50
2024-03-16T01:33:20.667Z,11.50
2024-03-16T01:35:50.250Z,11.50
2024-03-16T01:38:17.695Z,11.40
2024-03-16T01:40:45.099Z,11.40
2024-03-16T01:43:15.585Z,11.30
2024-03-16T01:45:43.452Z,11.30
2024-03-16T01:48:11.153Z,11.20
2024-03-16T01:50:39.151Z,11.20
2024-03-16T01:53:08.036Z,11.10
2024-03-16T01:55:37.118Z,11.20
2024-03-16T01:58:05.762Z,11.20
2024-03-16T02:00:33.993Z,11.10
2024-03-16T02:03:01.566Z,11.00
2024-03-16T02:05:28.552Z,11.00
2024-03-16T02:07:55.901Z,10.90
2024-03-16T02:10:23.271Z,10.90
2024-03-16T02:12:50.371Z,11.00
2024-03-16T02:15:17.439Z,11.00
2024-03-16T02:17:47.488Z,11.00
2024-03-16T02:20:17.449Z,11.00
2024-03-16T02:22:45.000Z,11.00
2024-03-16T02:25:12.247Z,11.00
2024-03-16T02:27:39.559Z,11.00
2024-03-16T02:30:11.501Z,11.00
2024-03-16T02:32:39.200Z,11.10
2024-03-16T02:35:09.354Z,11.10
2024-03-16T02:37:37.695Z,11.10
2024-03-16T02:40:05.369Z,11.00
2024-03-16T02:42:32.625Z,11.10
2024-03-16T02:45:00.426Z,11.00
2024-03-16T02:47:27.464Z,11.10
2024-03-16T02:49:54.529Z,11.00
2024-03-16T02:52:21.456Z,11.10
2024-03-16T02:54:48.529Z,11.10
2024-03-16T02:57:15.594Z,11.10
2024-03-16T02:59:42.628Z,11.10
2024-03-16T03:02:09.981Z,11.10
2024-03-16T03:04:36.945Z,11.00
2024-03-16T03:07:05.872Z,11.10
2024-03-16T03:09:34.551Z,11.10
2024-03-16T03:12:01.693Z,11.00
2024-03-16T03:14:28.685Z,11.00
2024-03-16T03:16:55.628Z,11.00
2024-03-16T03:19:22.740Z,11.00
2024-03-16T03:21:49.707Z,10.90
2024-03-16T03:24:16.788Z,10.90
2024-03-16T03:26:43.738Z,10.90
2024-03-16T03:29:10.709Z,10.90
2024-03-16T03:31:37.691Z,10.90
2024-03-16T03:34:04.878Z,11.00
2024-03-16T03:36:32.001Z,11.00
2024-03-16T03:38:59.052Z,11.00
2024-03-16T03:41:28.807Z,11.10
2024-03-16T03:44:10.322Z,11.10
2024-03-16T03:46:53.042Z,11.10
2024-03-16T03:49:40.809Z,11.10
2024-03-16T03:52:07.903Z,11.10
2024-03-16T03:54:36.143Z,11.20
2024-03-16T03:57:04.146Z,11.20
2024-03-16T03:59:31.135Z,11.20
2024-03-16T04:01:58.115Z,11.20
2024-03-16T04:04:25.096Z,11.20
2024-03-16T04:06:52.168Z,11.20
2024-03-16T04:09:19.176Z,11.20
2024-03-16T04:11:46.129Z,11.20
2024-03-16T04:14:13.175Z,11.20
2024-03-16T04:16:40.117Z,11.20
2024-03-16T04:19:07.516Z,11.10
2024-03-16T04:21:34.581Z,11.10
2024-03-16T04:24:01.675Z,11.00
2024-03-16T04:26:28.631Z,14.60
2024-03-16T04:28:55.631Z,11.00
2024-03-16T04:31:22.667Z,11.00
2024-03-16T04:33:49.634Z,11.00
2024-03-16T04:36:17.073Z,11.00
2024-03-16T04:38:43.991Z,11.00
2024-03-16T04:41:10.955Z,11.00
2024-03-16T04:43:37.939Z,11.00
2024-03-16T04:46:05.181Z,11.00
2024-03-16T04:48:32.344Z,11.00
2024-03-16T04:50:59.378Z,11.00
2024-03-16T04:53:26.396Z,11.00
2024-03-16T04:55:56.171Z,10.90
2024-03-16T04:58:23.909Z,10.90
2024-03-16T05:00:51.139Z,11.00
2024-03-16T05:03:18.703Z,11.00
2024-03-16T05:05:45.732Z,11.00
2024-03-16T05:08:13.647Z,11.10
2024-03-16T05:10:40.995Z,11.10
2024-03-16T05:13:08.159Z,11.10
2024-03-16T05:15:35.231Z,11.10
2024-03-16T05:18:02.283Z,11.10
2024-03-16T05:20:29.334Z,11.20
2024-03-16T05:22:56.404Z,11.20
2024-03-16T05:25:23.866Z,11.30
2024-03-16T05:27:51.138Z,11.30
2024-03-16T05:30:18.144Z,11.10
2024-03-16T05:32:45.261Z,11.30
2024-03-16T05:35:12.411Z,11.40
2024-03-16T05:37:39.611Z,11.30
2024-03-16T05:40:07.426Z,11.40
2024-03-16T05:42:41.519Z,11.40
2024-03-16T05:45:08.844Z,11.40
2024-03-16T05:47:35.850Z,11.40
2024-03-16T05:50:04.782Z,11.50
2024-03-16T05:52:31.726Z,11.50
2024-03-16T05:54:58.720Z,11.50
2024-03-16T05:57:26.124Z,11.60
2024-03-16T05:59:54.134Z,11.60
2024-03-16T06:02:23.393Z,11.60
2024-03-16T06:04:53.453Z,11.70
2024-03-16T06:07:21.903Z,11.80
2024-03-16T06:09:49.111Z,11.80
2024-03-16T06:12:16.147Z,11.90
2024-03-16T06:14:43.129Z,12.00
2024-03-16T06:17:10.062Z,12.10
2024-03-16T06:19:37.021Z,12.30
2024-03-16T06:22:04.424Z,12.40
2024-03-16T06:24:32.438Z,12.50
2024-03-16T06:27:06.382Z,12.60
2024-03-16T06:29:33.859Z,12.60
2024-03-16T06:32:07.150Z,12.70
2024-03-16T06:34:34.820Z,12.80
2024-03-16T06:37:02.597Z,13.00
2024-03-16T06:39:30.450Z,13.10
2024-03-16T06:41:58.041Z,13.20
2024-03-16T06:44:25.053Z,13.40
2024-03-16T06:46:52.092Z,13.50
2024-03-16T06:49:19.372Z,13.60
2024-03-16T06:51:46.532Z,13.70
2024-03-16T06:54:13.845Z,13.80
2024-03-16T06:56:41.128Z,13.80
2024-03-16T06:59:08.384Z,13.90
2024-03-16T07:01:35.522Z,13.70
2024-03-16T07:04:02.654Z,13.70
2024-03-16T07:06:29.781Z,13.60
2024-03-16T07:08:59.179Z,13.60
2024-03-16T07:11:26.138Z,13.70
2024-03-16T07:13:55.406Z,13.70
2024-03-16T07:16:22.808Z,13.80
2024-03-16T07:18:49.964Z,13.80
2024-03-16T07:21:20.440Z,13.80
2024-03-16T07:23:50.468Z,13.80
2024-03-16T07:26:17.543Z,13.80
2024-03-16T07:28:44.665Z,13.90
2024-03-16T07:31:11.602Z,14.00
2024-03-16T07:33:39.119Z,14.20
2024-03-16T07:36:06.633Z,14.50
2024-03-16T07:38:33.649Z,14.50
2024-03-16T07:41:00.696Z,14.70
2024-03-16T07:43:27.751Z,14.70
2024-03-16T07:45:55.082Z,14.90
2024-03-16T07:48:23.398Z,15.00
2024-03-16T07:50:50.493Z,15.20
2024-03-16T07:53:17.435Z,15.30
2024-03-16T07:55:44.394Z,15.30
2024-03-16T07:58:11.444Z,15.30
2024-03-16T08:00:38.479Z,15.30
2024-03-16T08:03:05.678Z,15.30
2024-03-16T08:05:33.594Z,15.40
2024-03-16T08:08:00.991Z,15.60
2024-03-16T08:10:29.806Z,15.50
2024-03-16T08:12:56.964Z,15.70
2024-03-16T08:15:23.987Z,15.60
2024-03-16T08:17:53.175Z,15.60
2024-03-16T08:20:20.340Z,15.80
2024-03-16T08:22:49.777Z,16.10
2024-03-16T08:25:17.112Z,16.20
2024-03-16T08:27:44.327Z,16.50
2024-03-16T08:30:11.753Z,16.70
2024-03-16T08:32:39.114Z,16.90
2024-03-16T08:35:06.977Z,17.00
2024-03-16T08:37:34.257Z,17.00
2024-03-16T08:40:01.682Z,17.20
2024-03-16T08:42:30.628Z,17.40
2024-03-16T08:44:57.691Z,17.70
2024-03-16T08:47:24.645Z,18.00
2024-03-16T08:49:51.729Z,17.90
2024-03-16T08:52:19.384Z,17.80
2024-03-16T08:54:46.443Z,18.10
2024-03-16T08:57:13.475Z,18.20
2024-03-16T08:59:40.992Z,18.50
2024-03-16T09:02:08.173Z,18.80
2024-03-16T09:04:35.230Z,19.00
2024-03-16T09:07:02.256Z,19.20
2024-03-16T09:09:29.371Z,19.40
2024-03-16T09:11:56.432Z,19.70
2024-03-16T09:14:23.484Z,19.80
2024-03-16T09:16:50.455Z,20.10
2024-03-16T09:19:17.483Z,20.20
2024-03-16T09:21:44.455Z,20.20
2024-03-16T09:24:11.510Z,20.40
2024-03-16T09:26:39.966Z,20.50
2024-03-16T09:29:07.074Z,20.70
2024-03-16T09:31:34.059Z,21.00
2024-03-16T09:34:01.124Z,21.20
2024-03-16T09:36:29.572Z,21.40
2024-03-16T09:38:56.763Z,21.70
2024-03-16T09:41:23.815Z,21.70
